createdAt,value
2018-08-09T00:00:06.118Z,5.97
2018-08-09T00:01:09.723Z,6.00
2018-08-09T00:02:14.116Z,5.70
2018-08-09T00:03:17.597Z,6.47
2018-08-09T00:04:22.690Z,5.83
2018-08-09T00:05:26.148Z,6.00
2018-08-09T00:06:29.888Z,5.17
2018-08-09T00:07:33.463Z,5.78
2018-08-09T00:08:36.942Z,5.25
2018-08-09T00:09:40.518Z,6.17
2018-08-09T00:10:43.984Z,5.45
2018-08-09T00:11:47.590Z,5.97
2018-08-09T00:12:51.113Z,5.40
2018-08-09T00:13:54.615Z,6.25
2018-08-09T00:14:58.077Z,5.58
2018-08-09T00:16:01.654Z,5.85
2018-08-09T00:17:05.140Z,6.05
2018-08-09T00:18:08.623Z,6.35
2018-08-09T00:19:12.147Z,6.20
2018-08-09T00:20:15.669Z,6.45
2018-08-09T00:21:19.188Z,6.67
2018-08-09T00:22:22.828Z,6.55
2018-08-09T00:23:27.352Z,6.12
2018-08-09T00:24:31.017Z,6.72
2018-08-09T00:25:34.972Z,6.47
2018-08-09T00:26:38.457Z,6.35
2018-08-09T00:27:41.930Z,7.00
2018-08-09T00:28:45.392Z,6.42
2018-08-09T00:29:48.909Z,7.15
2018-08-09T00:30:52.733Z,6.40
2018-08-09T00:31:56.216Z,7.33
2018-08-09T00:32:59.659Z,6.40
2018-08-09T00:34:03.188Z,6.85
2018-08-09T00:35:06.704Z,7.60
2018-08-09T00:36:10.524Z,6.10
2018-08-09T00:37:13.943Z,6.45
2018-08-09T00:38:17.552Z,7.00
2018-08-09T00:39:21.066Z,6.83
2018-08-09T00:40:24.663Z,6.05
2018-08-09T00:41:28.126Z,7.25
2018-08-09T00:42:31.722Z,6.70
2018-08-09T00:43:36.153Z,5.72
2018-08-09T00:44:39.787Z,5.60
2018-08-09T00:45:43.325Z,6.28
2018-08-09T00:46:46.808Z,5.72
2018-08-09T00:47:50.323Z,5.55
2018-08-09T00:48:54.702Z,6.15
2018-08-09T00:49:58.217Z,5.90
2018-08-09T00:51:01.715Z,5.40
2018-08-09T00:52:05.359Z,5.75
2018-08-09T00:53:08.990Z,5.65
2018-08-09T00:54:12.498Z,5.47
2018-08-09T00:55:15.960Z,6.10
2018-08-09T00:56:20.026Z,5.35
2018-08-09T00:57:23.641Z,5.30
2018-08-09T00:58:27.778Z,5.17
2018-08-09T00:59:31.290Z,5.47
2018-08-09T01:00:34.872Z,5.45
2018-08-09T01:01:38.423Z,4.95
2018-08-09T01:02:41.929Z,5.28
2018-08-09T01:03:46.036Z,5.00
2018-08-09T01:04:49.658Z,5.25
2018-08-09T01:05:53.531Z,5.17
2018-08-09T01:06:58.277Z,5.85
2018-08-09T01:08:01.805Z,5.37
2018-08-09T01:09:08.311Z,6.00
2018-08-09T01:10:12.415Z,5.35
2018-08-09T01:11:15.878Z,5.70
2018-08-09T01:12:19.390Z,6.28
2018-08-09T01:13:23.084Z,6.03
2018-08-09T01:14:27.045Z,8.23
2018-08-09T01:15:30.624Z,8.00
2018-08-09T01:16:34.399Z,7.12
2018-08-09T01:17:38.002Z,8.80
2018-08-09T01:18:42.089Z,9.10
2018-08-09T01:19:46.200Z,8.73
2018-08-09T01:20:49.915Z,10.18
2018-08-09T01:21:53.462Z,9.58
2018-08-09T01:22:56.986Z,9.28
2018-08-09T01:24:00.822Z,10.08
2018-08-09T01:25:04.549Z,10.40
2018-08-09T01:26:08.020Z,11.25
2018-08-09T01:27:11.624Z,10.18
2018-08-09T01:28:15.721Z,11.18
2018-08-09T01:29:19.196Z,10.55
2018-08-09T01:30:23.280Z,10.90
2018-08-09T01:31:35.606Z,11.15
2018-08-09T01:32:39.989Z,10.32
2018-08-09T01:33:43.457Z,10.32
2018-08-09T01:34:47.035Z,11.38
2018-08-09T01:35:50.626Z,10.40
2018-08-09T01:36:54.070Z,10.68
2018-08-09T01:37:57.742Z,10.75
2018-08-09T01:39:01.674Z,10.25
2018-08-09T01:40:05.898Z,10.43
2018-08-09T01:41:09.459Z,10.48
2018-08-09T01:42:24.223Z,10.60
2018-08-09T01:43:39.006Z,9.85
2018-08-09T01:44:43.119Z,11.45
2018-08-09T01:45:46.608Z,11.03
2018-08-09T01:46:50.071Z,11.12
2018-08-09T01:47:53.534Z,10.80
2018-08-09T01:48:57.736Z,10.98
2018-08-09T01:50:01.602Z,9.70
2018-08-09T01:51:05.502Z,10.80
2018-08-09T01:52:09.057Z,10.00
2018-08-09T01:53:12.664Z,10.70
2018-08-09T01:54:16.164Z,10.58
2018-08-09T01:55:19.642Z,11.28
2018-08-09T01:56:23.246Z,11.22
2018-08-09T01:57:26.734Z,10.30
2018-08-09T01:58:30.942Z,11.10
2018-08-09T01:59:34.991Z,11.28
2018-08-09T02:00:38.496Z,11.63
2018-08-09T02:01:41.969Z,11.35
2018-08-09T02:02:45.485Z,11.78
2018-08-09T02:03:49.080Z,11.93
2018-08-09T02:04:52.612Z,12.00
2018-08-09T02:05:56.110Z,10.85
2018-08-09T02:06:59.578Z,13.35
2018-08-09T02:08:03.032Z,12.47
2018-08-09T02:09:08.912Z,12.15
2018-08-09T02:10:12.551Z,12.25
2018-08-09T02:11:16.025Z,11.97
2018-08-09T02:12:19.473Z,12.35
2018-08-09T02:13:23.530Z,12.50
2018-08-09T02:14:27.032Z,11.80
2018-08-09T02:15:30.539Z,12.43
2018-08-09T02:16:34.109Z,12.33
2018-08-09T02:17:37.645Z,12.50
2018-08-09T02:18:41.119Z,12.35
2018-08-09T02:19:45.059Z,12.05
2018-08-09T02:20:48.562Z,12.20
2018-08-09T02:21:52.086Z,12.63
2018-08-09T02:22:55.535Z,12.80
2018-08-09T02:23:59.010Z,13.50
2018-08-09T02:25:02.506Z,12.33
2018-08-09T02:26:06.114Z,14.20
2018-08-09T02:27:10.243Z,13.65
2018-08-09T02:28:13.768Z,13.88
2018-08-09T02:29:17.278Z,12.78
2018-08-09T02:30:20.762Z,12.60
2018-08-09T02:31:24.830Z,13.35
2018-08-09T02:32:28.517Z,12.93
2018-08-09T02:33:31.981Z,13.65
2018-08-09T02:34:35.863Z,12.82
2018-08-09T02:35:39.406Z,12.85
2018-08-09T02:36:42.890Z,12.93
2018-08-09T02:37:47.325Z,13.00
2018-08-09T02:38:50.868Z,13.40
2018-08-09T02:39:54.353Z,11.93
2018-08-09T02:40:57.823Z,13.28
2018-08-09T02:42:06.987Z,13.98
2018-08-09T02:43:10.898Z,14.68
2018-08-09T02:44:14.508Z,14.50
2018-08-09T02:45:18.103Z,13.88
2018-08-09T02:46:21.646Z,13.93
2018-08-09T02:47:25.183Z,14.23
2018-08-09T02:48:28.987Z,13.40
2018-08-09T02:49:32.627Z,14.07
2018-08-09T02:50:36.190Z,14.63
2018-08-09T02:51:39.847Z,13.30
2018-08-09T02:52:43.534Z,13.32
2018-08-09T02:53:47.184Z,15.53
2018-08-09T02:54:51.128Z,13.85
2018-08-09T02:55:54.694Z,14.43
2018-08-09T02:56:58.215Z,14.47
2018-08-09T02:58:01.836Z,14.95
2018-08-09T02:59:05.631Z,14.03
2018-08-09T03:00:09.163Z,14.35
2018-08-09T03:01:12.881Z,14.75
2018-08-09T03:02:16.735Z,15.45
2018-08-09T03:03:20.467Z,13.95
2018-08-09T03:04:24.196Z,14.87
2018-08-09T03:05:27.827Z,14.98
2018-08-09T03:06:31.431Z,14.65
2018-08-09T03:07:34.966Z,13.78
2018-08-09T03:08:38.756Z,15.90
2018-08-09T03:09:42.302Z,15.85
2018-08-09T03:10:45.841Z,14.50
2018-08-09T03:11:49.702Z,14.75
2018-08-09T03:12:53.417Z,14.98
2018-08-09T03:13:57.087Z,15.58
2018-08-09T03:15:01.046Z,14.50
2018-08-09T03:16:04.736Z,16.15
2018-08-09T03:17:08.653Z,15.50
2018-08-09T03:18:13.478Z,15.75
2018-08-09T03:19:16.999Z,14.18
2018-08-09T03:20:20.694Z,15.63
2018-08-09T03:21:24.240Z,15.18
2018-08-09T03:22:27.926Z,14.40
2018-08-09T03:23:31.523Z,15.48
2018-08-09T03:24:35.081Z,15.35
2018-08-09T03:25:38.599Z,15.43
2018-08-09T03:26:42.158Z,15.90
2018-08-09T03:27:45.766Z,15.63
2018-08-09T03:28:49.375Z,15.63
2018-08-09T03:29:53.042Z,15.70
2018-08-09T03:30:56.612Z,16.05
2018-08-09T03:32:00.512Z,15.43
2018-08-09T03:33:04.139Z,15.43
2018-08-09T03:34:07.790Z,15.13
2018-08-09T03:35:11.742Z,14.25
2018-08-09T03:36:15.275Z,14.87
2018-08-09T03:37:18.875Z,15.45
2018-08-09T03:38:22.575Z,14.73
2018-08-09T03:39:26.142Z,15.50
2018-08-09T03:40:29.851Z,14.65
2018-08-09T03:41:33.372Z,14.47
2018-08-09T03:42:36.925Z,14.83
2018-08-09T03:43:40.916Z,13.80
2018-08-09T03:44:44.513Z,14.50
2018-08-09T03:45:48.146Z,13.95
2018-08-09T03:46:51.734Z,15.38
2018-08-09T03:47:55.528Z,14.15
2018-08-09T03:48:59.081Z,14.33
2018-08-09T03:50:02.727Z,14.65
2018-08-09T03:51:06.252Z,14.90
2018-08-09T03:52:10.405Z,14.53
2018-08-09T03:53:14.149Z,14.23
2018-08-09T03:54:17.703Z,14.10
2018-08-09T03:55:21.398Z,13.78
2018-08-09T03:56:24.996Z,14.70
2018-08-09T03:57:44.483Z,14.10
2018-08-09T03:58:49.487Z,13.32
2018-08-09T03:59:53.571Z,13.48
2018-08-09T04:00:57.990Z,14.43
2018-08-09T04:02:01.932Z,14.58
2018-08-09T04:03:05.611Z,15.03
2018-08-09T04:04:09.247Z,14.73
2018-08-09T04:05:13.725Z,14.45
2018-08-09T04:06:17.348Z,14.18
2018-08-09T04:07:20.995Z,13.65
2018-08-09T04:08:24.674Z,14.10
2018-08-09T04:09:28.261Z,14.10
2018-08-09T04:10:31.804Z,13.95
2018-08-09T04:11:35.469Z,12.95
2018-08-09T04:12:39.119Z,13.72
2018-08-09T04:13:42.699Z,14.50
2018-08-09T04:14:46.343Z,14.15
2018-08-09T04:15:50.027Z,13.22
2018-08-09T04:16:53.811Z,15.00
2018-08-09T04:17:57.459Z,14.60
2018-08-09T04:19:01.088Z,13.60
2018-08-09T04:20:05.281Z,12.98
2018-08-09T04:21:11.249Z,14.58
2018-08-09T04:22:15.299Z,13.90
2018-08-09T04:23:18.946Z,13.55
2018-08-09T04:24:22.480Z,13.93
2018-08-09T04:25:26.270Z,14.25
2018-08-09T04:26:30.361Z,13.78
2018-08-09T04:27:33.949Z,13.00
2018-08-09T04:28:37.521Z,14.18
2018-08-09T04:29:41.230Z,13.13
2018-08-09T04:30:44.807Z,12.35
2018-08-09T04:31:48.376Z,12.53
2018-08-09T04:32:52.030Z,12.90
2018-08-09T04:33:55.640Z,13.88
2018-08-09T04:34:59.311Z,12.10
2018-08-09T04:36:02.894Z,11.83
2018-08-09T04:37:06.878Z,11.22
2018-08-09T04:38:10.671Z,11.68
2018-08-09T04:39:14.535Z,11.57
2018-08-09T04:40:18.076Z,12.85
2018-08-09T04:41:21.658Z,12.68
2018-08-09T04:42:25.198Z,12.82
2018-08-09T04:43:29.091Z,12.90
2018-08-09T04:44:32.632Z,12.23
2018-08-09T04:45:36.162Z,11.90
2018-08-09T04:46:39.673Z,12.10
2018-08-09T04:47:43.239Z,12.75
2018-08-09T04:48:46.808Z,12.50
2018-08-09T04:49:50.382Z,12.28
2018-08-09T04:50:53.952Z,11.97
2018-08-09T04:51:58.314Z,11.40
2018-08-09T04:53:02.186Z,12.20
2018-08-09T04:54:05.799Z,11.73
2018-08-09T04:55:09.519Z,12.47
2018-08-09T04:56:13.829Z,12.68
2018-08-09T04:57:17.470Z,11.48
2018-08-09T04:58:21.103Z,12.13
2018-08-09T04:59:24.670Z,12.40
2018-08-09T05:00:28.267Z,11.60
2018-08-09T05:01:31.808Z,11.88
2018-08-09T05:02:35.418Z,12.70
2018-08-09T05:03:39.146Z,11.75
2018-08-09T05:04:42.698Z,11.85
2018-08-09T05:05:46.285Z,11.78
2018-08-09T05:06:49.855Z,11.70
2018-08-09T05:07:53.523Z,11.00
2018-08-09T05:08:57.182Z,10.72
2018-08-09T05:10:05.932Z,12.33
2018-08-09T05:11:09.553Z,10.80
2018-08-09T05:12:13.324Z,10.65
2018-08-09T05:13:16.910Z,9.83
2018-08-09T05:14:20.494Z,11.35
2018-08-09T05:15:24.120Z,11.20
2018-08-09T05:16:27.706Z,10.68
2018-08-09T05:17:31.467Z,10.13
2018-08-09T05:18:35.044Z,10.32
2018-08-09T05:19:38.596Z,10.28
2018-08-09T05:20:42.173Z,11.10
2018-08-09T05:21:45.797Z,10.70
2018-08-09T05:22:49.367Z,10.40
2018-08-09T05:23:52.971Z,11.08
2018-08-09T05:24:56.561Z,10.72
2018-08-09T05:26:00.258Z,11.03
2018-08-09T05:27:03.944Z,11.48
2018-08-09T05:28:08.086Z,11.65
2018-08-09T05:29:12.460Z,10.68
2018-08-09T05:30:16.022Z,11.38
2018-08-09T05:31:19.643Z,10.75
2018-08-09T05:32:23.267Z,11.12
2018-08-09T05:33:26.904Z,10.50
2018-08-09T05:34:30.737Z,11.20
2018-08-09T05:35:34.282Z,11.68
2018-08-09T05:36:37.924Z,11.03
2018-08-09T05:37:41.534Z,11.22
2018-08-09T05:38:45.127Z,11.88
2018-08-09T05:39:48.718Z,11.22
2018-08-09T05:40:52.362Z,11.35
2018-08-09T05:41:55.948Z,11.28
2018-08-09T05:42:59.502Z,11.40
2018-08-09T05:44:03.448Z,10.28
2018-08-09T05:45:07.114Z,10.70
2018-08-09T05:46:10.830Z,11.53
2018-08-09T05:47:14.466Z,11.88
2018-08-09T05:48:18.090Z,13.22
2018-08-09T05:49:21.823Z,11.45
2018-08-09T05:50:25.459Z,12.30
2018-08-09T05:51:29.110Z,11.03
2018-08-09T05:52:32.999Z,11.40
2018-08-09T05:53:36.587Z,11.40
2018-08-09T05:54:40.117Z,11.60
2018-08-09T05:55:43.842Z,11.50
2018-08-09T05:56:47.498Z,11.53
2018-08-09T05:57:51.221Z,10.88
2018-08-09T05:58:54.901Z,11.53
2018-08-09T05:59:58.619Z,10.60
2018-08-09T06:01:02.373Z,10.72
2018-08-09T06:02:06.347Z,10.78
2018-08-09T06:03:10.237Z,11.20
2018-08-09T06:04:13.993Z,11.40
2018-08-09T06:05:17.685Z,11.28
2018-08-09T06:06:21.380Z,12.07
2018-08-09T06:07:24.989Z,10.88
2018-08-09T06:08:28.663Z,10.38
2018-08-09T06:09:32.298Z,10.53
2018-08-09T06:10:35.934Z,9.93
2018-08-09T06:11:39.542Z,10.38
2018-08-09T06:12:43.156Z,10.98
2018-08-09T06:13:46.735Z,10.75
2018-08-09T06:14:50.433Z,11.93
2018-08-09T06:15:54.016Z,10.78
2018-08-09T06:16:57.646Z,11.08
2018-08-09T06:18:01.187Z,10.88
2018-08-09T06:19:05.556Z,11.38
2018-08-09T06:20:09.558Z,10.78
2018-08-09T06:21:13.722Z,11.10
2018-08-09T06:22:17.348Z,11.40
2018-08-09T06:23:21.007Z,11.57
2018-08-09T06:24:24.764Z,10.95
2018-08-09T06:25:28.405Z,10.85
2018-08-09T06:26:32.091Z,11.28
2018-08-09T06:27:35.857Z,11.48
2018-08-09T06:28:39.597Z,10.82
2018-08-09T06:29:43.139Z,11.38
2018-08-09T06:30:46.868Z,10.18
2018-08-09T06:31:50.420Z,10.50
2018-08-09T06:32:54.027Z,10.58
2018-08-09T06:33:57.636Z,10.13
2018-08-09T06:35:01.368Z,10.45
2018-08-09T06:36:05.217Z,11.45
2018-08-09T06:37:08.901Z,10.98
2018-08-09T06:38:12.717Z,10.45
2018-08-09T06:39:16.323Z,10.60
2018-08-09T06:40:19.988Z,11.53
2018-08-09T06:41:23.603Z,11.12
2018-08-09T06:42:27.234Z,10.63
2018-08-09T06:43:30.993Z,11.88
2018-08-09T06:44:34.524Z,10.18
2018-08-09T06:45:38.155Z,11.20
2018-08-09T06:46:41.853Z,11.57
2018-08-09T06:47:45.568Z,11.18
2018-08-09T06:48:49.196Z,11.28
2018-08-09T06:49:52.840Z,11.88
2018-08-09T06:50:56.404Z,12.28
2018-08-09T06:52:00.356Z,12.23
2018-08-09T06:53:03.978Z,12.00
2018-08-09T06:54:07.610Z,11.55
2018-08-09T06:55:11.331Z,12.25
2018-08-09T06:56:14.992Z,13.25
2018-08-09T06:57:18.556Z,11.22
2018-08-09T06:58:22.299Z,12.50
2018-08-09T06:59:25.850Z,13.08
2018-08-09T07:00:29.355Z,12.10
2018-08-09T07:01:32.982Z,12.15
2018-08-09T07:02:36.742Z,13.05
2018-08-09T07:03:40.515Z,11.43
2018-08-09T07:04:44.515Z,11.97
2018-08-09T07:05:48.078Z,12.43
2018-08-09T07:06:51.657Z,11.63
2018-08-09T07:07:55.211Z,12.07
2018-08-09T07:08:59.189Z,12.70
2018-08-09T07:10:02.778Z,12.28
2018-08-09T07:11:06.447Z,11.28
2018-08-09T07:12:11.570Z,12.63
2018-08-09T07:13:15.272Z,12.70
2018-08-09T07:14:19.077Z,13.35
2018-08-09T07:15:22.722Z,12.28
2018-08-09T07:16:26.443Z,11.88
2018-08-09T07:17:30.124Z,12.45
2018-08-09T07:18:33.896Z,12.95
2018-08-09T07:19:37.623Z,11.95
2018-08-09T07:20:41.358Z,12.25
2018-08-09T07:21:44.987Z,11.83
2018-08-09T07:22:48.638Z,12.00
2018-08-09T07:23:52.159Z,11.88
2018-08-09T07:24:55.811Z,12.73
2018-08-09T07:25:59.424Z,12.40
2018-08-09T07:27:03.024Z,12.15
2018-08-09T07:28:07.540Z,11.90
2018-08-09T07:29:11.655Z,11.25
2018-08-09T07:30:15.331Z,12.65
2018-08-09T07:31:18.933Z,11.73
2018-08-09T07:32:22.490Z,12.98
2018-08-09T07:33:26.138Z,12.73
2018-08-09T07:34:29.788Z,11.78
2018-08-09T07:35:33.363Z,12.05
2018-08-09T07:36:37.041Z,11.68
2018-08-09T07:37:40.591Z,12.60
2018-08-09T07:38:44.220Z,11.70
2018-08-09T07:39:47.928Z,11.73
2018-08-09T07:40:51.481Z,12.00
2018-08-09T07:41:55.225Z,12.05
2018-08-09T07:42:58.835Z,11.60
2018-08-09T07:44:02.651Z,11.97
2018-08-09T07:45:08.111Z,11.65
2018-08-09T07:46:12.298Z,10.65
2018-08-09T07:47:16.213Z,11.15
2018-08-09T07:48:19.844Z,12.03
2018-08-09T07:49:23.507Z,10.70
2018-08-09T07:50:27.235Z,10.30
2018-08-09T07:51:30.957Z,8.68
2018-08-09T07:52:34.642Z,10.00
2018-08-09T07:53:38.411Z,9.75
2018-08-09T07:54:43.096Z,9.78
2018-08-09T07:55:46.679Z,9.28
2018-08-09T07:56:50.285Z,9.63
2018-08-09T07:57:53.937Z,9.38
2018-08-09T07:58:57.626Z,8.90
2018-08-09T08:00:01.297Z,8.90
2018-08-09T08:01:04.904Z,9.58
2018-08-09T08:02:08.599Z,8.75
2018-08-09T08:03:13.108Z,8.55
2018-08-09T08:04:16.921Z,7.92
2018-08-09T08:05:20.557Z,8.43
2018-08-09T08:06:24.170Z,8.23
2018-08-09T08:07:28.176Z,8.50
2018-08-09T08:08:32.159Z,9.15
2018-08-09T08:09:36.666Z,8.53
2018-08-09T08:10:41.623Z,9.28
2018-08-09T08:11:46.582Z,8.50
2018-08-09T08:12:50.903Z,8.70
2018-08-09T08:13:56.211Z,8.80
2018-08-09T08:15:00.658Z,8.43
2018-08-09T08:16:04.741Z,8.93
2018-08-09T08:17:09.241Z,8.60
2018-08-09T08:18:13.387Z,8.63
2018-08-09T08:19:17.300Z,9.05
2018-08-09T08:20:21.500Z,9.28
2018-08-09T08:21:26.004Z,9.20
2018-08-09T08:22:29.671Z,9.23
2018-08-09T08:23:33.298Z,10.40
2018-08-09T08:24:37.543Z,9.83
2018-08-09T08:25:41.249Z,9.70
2018-08-09T08:26:45.604Z,9.35
2018-08-09T08:27:49.352Z,9.75
2018-08-09T08:28:53.904Z,10.00
2018-08-09T08:29:58.645Z,9.93
2018-08-09T08:31:02.240Z,9.95
2018-08-09T08:32:05.865Z,10.43
2018-08-09T08:33:09.582Z,11.00
2018-08-09T08:34:13.250Z,11.33
2018-08-09T08:35:17.538Z,10.30
2018-08-09T08:36:21.420Z,10.58
2018-08-09T08:37:24.949Z,10.25
2018-08-09T08:38:29.204Z,10.38
2018-08-09T08:39:33.100Z,10.72
2018-08-09T08:40:36.795Z,11.18
2018-08-09T08:41:41.347Z,10.08
2018-08-09T08:42:44.951Z,10.75
2018-08-09T08:43:48.505Z,10.38
2018-08-09T08:44:52.124Z,10.32
2018-08-09T08:45:56.251Z,11.20
2018-08-09T08:46:59.957Z,11.15
2018-08-09T08:48:04.081Z,10.60
2018-08-09T08:49:08.153Z,10.98
2018-08-09T08:50:13.559Z,12.07
2018-08-09T08:51:17.347Z,10.75
2018-08-09T08:52:21.338Z,10.68
2018-08-09T08:53:25.906Z,10.80
2018-08-09T08:54:30.232Z,11.97
2018-08-09T08:55:34.345Z,11.38
2018-08-09T08:56:38.149Z,12.47
2018-08-09T08:57:41.799Z,10.80
2018-08-09T08:58:45.929Z,11.83
2018-08-09T08:59:49.563Z,11.40
2018-08-09T09:00:53.104Z,11.40
2018-08-09T09:01:56.673Z,11.68
2018-08-09T09:03:00.240Z,12.03
2018-08-09T09:04:04.366Z,12.65
2018-08-09T09:05:10.780Z,12.15
2018-08-09T09:06:14.508Z,12.70
2018-08-09T09:07:19.011Z,13.00
2018-08-09T09:08:23.173Z,13.13
2018-08-09T09:09:26.760Z,12.45
2018-08-09T09:10:30.979Z,12.58
2018-08-09T09:11:34.922Z,12.93
2018-08-09T09:12:38.937Z,12.33
2018-08-09T09:13:42.727Z,12.90
2018-08-09T09:14:46.938Z,12.35
2018-08-09T09:15:51.556Z,13.43
2018-08-09T09:16:55.532Z,12.28
2018-08-09T09:17:59.436Z,12.73
2018-08-09T09:19:03.359Z,12.58
2018-08-09T09:20:10.359Z,12.37
2018-08-09T09:21:14.358Z,14.05
2018-08-09T09:22:18.206Z,12.95
2018-08-09T09:23:22.238Z,13.58
2018-08-09T09:24:25.921Z,13.18
2018-08-09T09:25:29.546Z,14.15
2018-08-09T09:26:34.546Z,12.80
2018-08-09T09:27:38.646Z,13.55
2018-08-09T09:28:42.227Z,12.75
2018-08-09T09:29:45.796Z,13.78
2018-08-09T09:30:49.404Z,14.20
2018-08-09T09:31:52.981Z,13.88
2018-08-09T09:32:57.562Z,13.58
2018-08-09T09:34:01.777Z,13.38
2018-08-09T09:35:06.026Z,13.32
2018-08-09T09:36:11.136Z,12.85
2018-08-09T09:37:15.185Z,13.50
2018-08-09T09:38:19.221Z,11.57
2018-08-09T09:39:22.767Z,11.48
2018-08-09T09:40:26.918Z,12.55
2018-08-09T09:41:31.034Z,12.93
2018-08-09T09:42:36.254Z,12.65
2018-08-09T09:43:40.462Z,13.58
2018-08-09T09:44:44.436Z,14.33
2018-08-09T09:45:48.398Z,12.85
2018-08-09T09:46:52.059Z,12.40
2018-08-09T09:47:55.769Z,13.65
2018-08-09T09:48:59.354Z,13.75
2018-08-09T09:50:03.113Z,11.63
2018-08-09T09:51:06.845Z,11.38
2018-08-09T09:52:10.563Z,13.70
2018-08-09T09:53:15.430Z,12.65
2018-08-09T09:54:19.847Z,12.37
2018-08-09T09:55:24.217Z,12.98
2018-08-09T09:56:28.077Z,12.33
2018-08-09T09:57:32.025Z,12.95
2018-08-09T09:58:36.211Z,14.15
2018-08-09T09:59:40.155Z,12.75
2018-08-09T10:00:49.043Z,12.73
2018-08-09T10:01:52.641Z,13.25
2018-08-09T10:02:56.294Z,12.78
2018-08-09T10:04:00.943Z,13.70
2018-08-09T10:05:05.146Z,12.80
2018-08-09T10:06:10.359Z,12.75
2018-08-09T10:07:15.188Z,13.28
2018-08-09T10:08:18.763Z,13.45
2018-08-09T10:09:22.438Z,12.50
2018-08-09T10:10:26.144Z,12.55
2018-08-09T10:11:30.239Z,13.85
2018-08-09T10:12:33.787Z,12.98
2018-08-09T10:13:37.407Z,12.50
2018-08-09T10:14:41.214Z,11.90
2018-08-09T10:15:44.862Z,12.18
2018-08-09T10:16:48.486Z,14.80
2018-08-09T10:17:52.143Z,11.30
2018-08-09T10:18:55.720Z,11.05
2018-08-09T10:19:59.287Z,12.50
2018-08-09T10:21:03.038Z,11.75
2018-08-09T10:22:07.023Z,11.00
2018-08-09T10:23:11.432Z,11.50
2018-08-09T10:24:15.019Z,11.68
2018-08-09T10:25:18.632Z,10.72
2018-08-09T10:26:22.250Z,11.83
2018-08-09T10:27:25.868Z,12.07
2018-08-09T10:28:29.491Z,11.68
2018-08-09T10:29:33.148Z,11.25
2018-08-09T10:30:36.749Z,12.05
2018-08-09T10:31:40.356Z,11.18
2018-08-09T10:32:43.920Z,10.48
2018-08-09T10:33:47.488Z,10.32
2018-08-09T10:34:51.077Z,11.33
2018-08-09T10:35:54.696Z,11.00
2018-08-09T10:36:58.263Z,10.23
2018-08-09T10:38:01.784Z,9.95
2018-08-09T10:39:09.235Z,9.78
2018-08-09T10:40:13.081Z,9.45
2018-08-09T10:41:16.710Z,9.63
2018-08-09T10:42:20.350Z,9.08
2018-08-09T10:43:23.923Z,8.90
2018-08-09T10:44:27.441Z,9.08
2018-08-09T10:45:31.050Z,9.28
2018-08-09T10:46:34.690Z,8.83
2018-08-09T10:47:38.532Z,9.48
2018-08-09T10:48:42.183Z,8.90
2018-08-09T10:49:46.331Z,9.20
2018-08-09T10:50:49.906Z,7.90
2018-08-09T10:51:53.631Z,7.28
2018-08-09T10:52:57.210Z,8.98
2018-08-09T10:54:00.753Z,6.83
2018-08-09T10:55:07.622Z,7.78
2018-08-09T10:57:14.727Z,8.25
2018-08-09T10:58:18.495Z,8.38
2018-08-09T10:59:22.264Z,9.73
2018-08-09T11:00:25.968Z,10.32
2018-08-09T11:01:29.606Z,11.15
2018-08-09T11:02:33.642Z,10.88
2018-08-09T11:03:37.234Z,9.13
2018-08-09T11:04:40.890Z,8.18
2018-08-09T11:05:44.450Z,6.90
2018-08-09T11:06:48.128Z,7.12
2018-08-09T11:07:51.707Z,8.30
2018-08-09T11:08:55.402Z,8.00
2018-08-09T11:09:58.949Z,9.78
2018-08-09T11:11:06.699Z,9.43
2018-08-09T11:12:10.400Z,8.55
2018-08-09T11:13:14.078Z,8.15
2018-08-09T11:14:17.656Z,7.55
2018-08-09T11:15:21.255Z,7.00
2018-08-09T11:16:24.809Z,8.63
2018-08-09T11:17:28.407Z,7.40
2018-08-09T11:18:31.984Z,8.15
2018-08-09T11:19:35.654Z,7.78
2018-08-09T11:20:39.376Z,7.28
2018-08-09T11:21:42.961Z,7.50
2018-08-09T11:22:46.579Z,7.20
2018-08-09T11:23:50.219Z,6.35
2018-08-09T11:24:53.752Z,6.78
2018-08-09T11:25:58.160Z,7.37
2018-08-09T11:27:01.774Z,6.90
2018-08-09T11:28:05.343Z,8.25
2018-08-09T11:29:08.925Z,7.70
2018-08-09T11:30:13.346Z,8.25
2018-08-09T11:31:16.851Z,7.62
2018-08-09T11:32:20.489Z,8.90
2018-08-09T11:33:24.813Z,8.85
2018-08-09T11:34:28.483Z,9.83
2018-08-09T11:35:32.043Z,8.70
2018-08-09T11:36:35.635Z,8.88
2018-08-09T11:37:39.205Z,8.45
2018-08-09T11:38:42.852Z,7.85
2018-08-09T11:39:46.482Z,7.87
2018-08-09T11:40:50.106Z,7.70
2018-08-09T11:41:53.664Z,8.25
2018-08-09T11:42:57.241Z,8.38
2018-08-09T11:44:00.795Z,8.35
2018-08-09T11:45:04.905Z,8.33
2018-08-09T11:46:08.528Z,8.90
2018-08-09T11:47:13.194Z,8.85
2018-08-09T11:48:16.882Z,8.75
2018-08-09T11:49:20.479Z,8.03
2018-08-09T11:50:24.050Z,9.60
2018-08-09T11:51:27.674Z,9.10
2018-08-09T11:52:31.322Z,9.28
2018-08-09T11:53:35.176Z,9.23
2018-08-09T11:54:38.839Z,10.28
2018-08-09T11:55:42.406Z,9.70
2018-08-09T11:56:46.103Z,9.33
2018-08-09T11:57:49.632Z,9.45
2018-08-09T11:58:53.300Z,10.35
2018-08-09T11:59:56.940Z,9.88
2018-08-09T12:01:00.507Z,9.65
2018-08-09T12:02:04.155Z,10.05
2018-08-09T12:03:07.723Z,10.25
2018-08-09T12:04:11.361Z,10.30
2018-08-09T12:05:14.972Z,9.98
2018-08-09T12:06:18.622Z,10.00
2018-08-09T12:07:22.399Z,11.25
2018-08-09T12:08:25.989Z,9.48
2018-08-09T12:09:29.732Z,9.78
2018-08-09T12:10:33.407Z,10.13
2018-08-09T12:11:37.720Z,10.30
2018-08-09T12:12:41.522Z,10.72
2018-08-09T12:13:45.127Z,10.68
2018-08-09T12:14:48.849Z,10.70
2018-08-09T12:15:52.627Z,12.78
2018-08-09T12:16:56.306Z,10.23
2018-08-09T12:17:59.972Z,10.48
2018-08-09T12:19:03.953Z,11.65
2018-08-09T12:20:08.041Z,10.68
2018-08-09T12:21:11.940Z,11.38
2018-08-09T12:22:16.038Z,12.13
2018-08-09T12:23:19.714Z,11.57
2018-08-09T12:24:23.470Z,12.20
2018-08-09T12:25:27.185Z,11.22
2018-08-09T12:26:31.605Z,11.33
2018-08-09T12:27:35.625Z,10.35
2018-08-09T12:28:39.428Z,10.43
2018-08-09T12:29:43.093Z,12.40
2018-08-09T12:30:46.773Z,11.20
2018-08-09T12:31:50.475Z,11.43
2018-08-09T12:32:54.458Z,11.53
2018-08-09T12:33:58.303Z,12.30
2018-08-09T12:35:01.881Z,12.88
2018-08-09T12:36:06.121Z,11.33
2018-08-09T12:37:09.930Z,12.18
2018-08-09T12:38:13.848Z,12.60
2018-08-09T12:39:17.438Z,11.22
2018-08-09T12:40:21.027Z,13.45
2018-08-09T12:41:25.086Z,11.97
2018-08-09T12:42:28.737Z,11.55
2018-08-09T12:43:32.391Z,11.88
2018-08-09T12:44:36.053Z,12.95
2018-08-09T12:45:39.901Z,13.43
2018-08-09T12:46:43.630Z,12.03
2018-08-09T12:47:47.475Z,13.50
2018-08-09T12:48:51.154Z,14.18
2018-08-09T12:49:54.785Z,14.95
2018-08-09T12:50:58.519Z,12.58
2018-08-09T12:52:02.246Z,14.05
2018-08-09T12:53:06.059Z,12.78
2018-08-09T12:54:09.979Z,11.95
2018-08-09T12:55:14.611Z,12.07
2018-08-09T12:56:18.253Z,12.35
2018-08-09T12:57:22.107Z,11.15
2018-08-09T12:58:25.819Z,12.63
2018-08-09T12:59:29.494Z,11.80
2018-08-09T13:00:33.196Z,12.82
2018-08-09T13:01:36.861Z,12.25
2018-08-09T13:02:43.238Z,11.97
2018-08-09T13:03:47.019Z,12.47
2018-08-09T13:04:50.588Z,12.50
2018-08-09T13:05:54.202Z,11.80
2018-08-09T13:06:57.786Z,11.53
2018-08-09T13:08:01.499Z,12.35
2018-08-09T13:09:10.864Z,12.33
2018-08-09T13:10:15.265Z,11.45
2018-08-09T13:11:22.200Z,11.83
2018-08-09T13:12:25.859Z,12.07
2018-08-09T13:13:29.462Z,11.78
2018-08-09T13:14:33.193Z,11.00
2018-08-09T13:15:36.838Z,10.53
2018-08-09T13:16:40.823Z,11.18
2018-08-09T13:17:45.497Z,11.25
2018-08-09T13:18:49.078Z,11.10
2018-08-09T13:19:52.911Z,10.58
2018-08-09T13:20:56.577Z,11.15
2018-08-09T13:22:00.206Z,10.58
2018-08-09T13:23:04.043Z,9.98
2018-08-09T13:24:07.640Z,11.22
2018-08-09T13:25:11.443Z,11.15
2018-08-09T13:26:15.100Z,10.50
2018-08-09T13:27:18.764Z,10.70
2018-08-09T13:28:22.963Z,10.98
2018-08-09T13:29:26.705Z,11.18
2018-08-09T13:30:30.327Z,10.70
2018-08-09T13:31:34.008Z,10.40
2018-08-09T13:32:37.631Z,10.70
2018-08-09T13:33:41.295Z,10.25
2018-08-09T13:34:44.852Z,10.45
2018-08-09T13:35:48.471Z,11.10
2018-08-09T13:36:52.184Z,10.23
2018-08-09T13:37:55.861Z,10.82
2018-08-09T13:38:59.543Z,11.15
2018-08-09T13:40:03.420Z,10.35
2018-08-09T13:41:07.069Z,10.90
2018-08-09T13:42:10.777Z,10.55
2018-08-09T13:43:14.520Z,9.85
2018-08-09T13:44:18.423Z,10.50
2018-08-09T13:45:22.312Z,10.32
2018-08-09T13:46:26.004Z,9.40
2018-08-09T13:47:29.618Z,9.88
2018-08-09T13:48:33.347Z,9.53
2018-08-09T13:49:37.021Z,9.55
2018-08-09T13:50:40.800Z,9.83